| time (UTC) | temp F | wind direction | speed MPH | gust MPH | rain 1hr in | rain 24hr in | rain mn in | humidity % | barometer mb |
| 20260507030852 | 56 | 301 | 3.0 | 6.0 | 0.00 | 0.41 | 0.41 | 85 | 1013.2 |
| 20260507030349 | 56 | 81 | 2.0 | 3.0 | 0.00 | 0.41 | 0.41 | 85 | 1013.0 |
| 20260507025845 | 56 | 247 | 1.0 | 5.0 | 0.00 | 0.41 | 0.41 | 85 | 1012.8 |
| 20260507025343 | 56 | 302 | 2.0 | 3.0 | 0.00 | 0.41 | 0.41 | 85 | 1012.7 |
| 20260507024841 | 56 | 286 | 1.0 | 2.0 | 0.00 | 0.41 | 0.41 | 85 | 1012.9 |
| 20260507024338 | 57 | 19 | 2.0 | 3.0 | 0.00 | 0.41 | 0.41 | 86 | 1012.9 |
| 20260507023834 | 57 | 292 | 1.0 | 1.0 | 0.00 | 0.41 | 0.41 | 86 | 1012.9 |
| 20260507023330 | 57 | 252 | 0.0 | 3.0 | 0.00 | 0.41 | 0.41 | 86 | 1012.6 |
| 20260507022828 | 57 | 67 | 2.0 | 7.0 | 0.00 | 0.41 | 0.41 | 86 | 1012.6 |
| 20260507022324 | 57 | 352 | 3.0 | 5.0 | 0.00 | 0.41 | 0.41 | 87 | 1012.6 |
| 20260507021820 | 58 | 325 | 1.0 | 2.0 | 0.00 | 0.41 | 0.41 | 87 | 1012.4 |
| 20260507021316 | 58 | 50 | 3.0 | 3.0 | 0.00 | 0.41 | 0.41 | 87 | 1012.4 |
| 20260507020814 | 59 | 277 | 1.0 | 2.0 | 0.00 | 0.41 | 0.41 | 86 | 1012.3 |
| 20260507020310 | 59 | 286 | 2.0 | 2.0 | 0.00 | 0.41 | 0.41 | 84 | 1012.5 |
| 20260507015808 | 59 | 286 | 1.0 | 3.0 | 0.00 | 0.41 | 0.41 | 83 | 1012.7 |
| 20260507015306 | 59 | 275 | 3.0 | 3.0 | 0.00 | 0.41 | 0.41 | 83 | 1012.2 |
| 20260507014802 | 59 | 297 | 3.0 | 6.0 | 0.00 | 0.41 | 0.41 | 83 | 1012.5 |
| 20260507014258 | 59 | 311 | 5.0 | 7.0 | 0.00 | 0.41 | 0.41 | 84 | 1012.6 |
| 20260507013755 | 59 | 330 | 4.0 | 9.0 | 0.00 | 0.41 | 0.41 | 84 | 1012.8 |
| 20260507013252 | 59 | 324 | 5.0 | 7.0 | 0.00 | 0.41 | 0.41 | 84 | 1012.6 |
| 20260507012749 | 59 | 289 | 4.0 | 9.0 | 0.00 | 0.41 | 0.41 | 84 | 1012.5 |
| 20260507012245 | 59 | 290 | 5.0 | 8.0 | 0.00 | 0.41 | 0.41 | 84 | 1012.5 |
| 20260507011743 | 59 | 313 | 3.0 | 7.0 | 0.00 | 0.41 | 0.41 | 85 | 1012.3 |
| 20260507011239 | 60 | 290 | 3.0 | 7.0 | 0.00 | 0.41 | 0.41 | 85 | 1012.1 |
| 20260507010738 | 60 | 295 | 4.0 | 7.0 | 0.00 | 0.41 | 0.41 | 85 | 1012.3 |
| 20260507010235 | 60 | 286 | 5.0 | 8.0 | 0.00 | 0.41 | 0.41 | 84 | 1012.4 |
| 20260507005733 | 60 | 288 | 5.0 | 6.0 | 0.00 | 0.41 | 0.41 | 85 | 1012.2 |
| 20260507005229 | 60 | 298 | 4.0 | 7.0 | 0.00 | 0.41 | 0.41 | 84 | 1011.9 |
| 20260507004725 | 60 | 326 | 4.0 | 6.0 | 0.00 | 0.41 | 0.41 | 85 | 1011.9 |
| 20260507004223 | 60 | 319 | 3.0 | 5.0 | 0.00 | 0.41 | 0.41 | 85 | 1011.9 |
| 20260507003719 | 60 | 324 | 3.0 | 5.0 | 0.00 | 0.41 | 0.41 | 85 | 1011.6 |
| 20260507003214 | 60 | 281 | 5.0 | 7.0 | 0.00 | 0.41 | 0.41 | 84 | 1011.6 |
| 20260507002711 | 60 | 286 | 4.0 | 9.0 | 0.00 | 0.41 | 0.41 | 85 | 1011.6 |
| 20260507002207 | 60 | 303 | 7.0 | 9.0 | 0.00 | 0.41 | 0.41 | 85 | 1011.5 |
| 20260507001704 | 61 | 303 | 6.0 | 7.0 | 0.00 | 0.41 | 0.41 | 86 | 1011.7 |
| 20260507001201 | 61 | 288 | 6.0 | 8.0 | 0.00 | 0.41 | 0.41 | 86 | 1011.5 |
| 20260507000657 | 61 | 321 | 6.0 | 7.0 | 0.00 | 0.41 | 0.41 | 87 | 1011.1 |
| 20260507000153 | 61 | 282 | 6.0 | 10.0 | 0.00 | 0.41 | 0.41 | 87 | 1011.0 |
| 20260506235650 | 61 | 309 | 6.0 | 7.0 | 0.00 | 0.41 | 0.41 | 87 | 1011.0 |
| 20260506235145 | 62 | 330 | 3.0 | 5.0 | 0.00 | 0.41 | 0.41 | 87 | 1010.7 |
| 20260506234643 | 62 | 321 | 5.0 | 6.0 | 0.00 | 0.41 | 0.41 | 88 | 1010.7 |
| 20260506234140 | 62 | 292 | 3.0 | 8.0 | 0.00 | 0.41 | 0.41 | 88 | 1010.5 |
| 20260506233637 | 62 | 306 | 1.0 | 7.0 | 0.00 | 0.41 | 0.41 | 89 | 1010.5 |
| 20260506233134 | 62 | 293 | 7.0 | 8.0 | 0.00 | 0.41 | 0.41 | 89 | 1010.5 |
| 20260506232630 | 62 | 291 | 5.0 | 7.0 | 0.00 | 0.41 | 0.41 | 91 | 1010.5 |
| 20260506232125 | 63 | 313 | 7.0 | 9.0 | 0.05 | 0.41 | 0.41 | 92 | 1010.4 |
| 20260506231623 | 63 | 284 | 5.0 | 8.0 | 0.05 | 0.41 | 0.41 | 92 | 1010.6 |
| 20260506231121 | 64 | 8 | 5.0 | 7.0 | 0.00 | 0.40 | 0.40 | 94 | 1010.0 |
| 20260506230618 | 64 | 252 | 1.0 | 2.0 | 0.00 | 0.40 | 0.40 | 93 | 1009.9 |
| 20260506230115 | 64 | 272 | 2.0 | 3.0 | 0.00 | 0.40 | 0.40 | 94 | 1010.2 |
| 20260506225611 | 64 | 267 | 2.0 | 3.0 | 0.00 | 0.40 | 0.40 | 94 | 1010.0 |
| 20260506225108 | 65 | 322 | 3.0 | 5.0 | 0.00 | 0.40 | 0.40 | 93 | 1010.2 |
| 20260506224605 | 65 | 301 | 4.0 | 9.0 | 0.00 | 0.40 | 0.40 | 92 | 1010.2 |
| 20260506224101 | 65 | 261 | 4.0 | 7.0 | 0.00 | 0.40 | 0.40 | 91 | 1009.7 |
| 20260506223557 | 65 | 236 | 5.0 | 6.0 | 0.00 | 0.40 | 0.40 | 91 | 1009.7 |
| 20260506223053 | 65 | 253 | 3.0 | 6.0 | 0.00 | 0.40 | 0.40 | 91 | 1009.9 |
| 20260506222550 | 65 | 231 | 5.0 | 8.0 | 0.00 | 0.40 | 0.40 | 90 | 1009.8 |
| 20260506222047 | 66 | 269 | 5.0 | 6.0 | 0.00 | 0.40 | 0.40 | 89 | 1009.7 |
| 20260506221544 | 66 | 239 | 5.0 | 9.0 | 0.00 | 0.40 | 0.40 | 89 | 1009.8 |
| 20260506221042 | 66 | 228 | 3.0 | 7.0 | 0.00 | 0.40 | 0.40 | 88 | 1009.6 |
| 20260506220538 | 66 | 225 | 4.0 | 7.0 | 0.00 | 0.40 | 0.40 | 88 | 1009.8 |
| 20260506220034 | 66 | 246 | 3.0 | 8.0 | 0.00 | 0.40 | 0.40 | 88 | 1009.7 |
| 20260506215531 | 66 | 236 | 6.0 | 10.0 | 0.00 | 0.40 | 0.40 | 87 | 1009.6 |
| 20260506215026 | 66 | 218 | 9.0 | 11.0 | 0.00 | 0.40 | 0.40 | 87 | 1009.5 |
| 20260506214524 | 66 | 277 | 6.0 | 10.0 | 0.00 | 0.40 | 0.40 | 87 | 1009.6 |
| 20260506214021 | 66 | 222 | 4.0 | 6.0 | 0.00 | 0.40 | 0.40 | 87 | 1009.4 |
| 20260506213519 | 66 | 242 | 6.0 | 10.0 | 0.00 | 0.40 | 0.40 | 87 | 1009.2 |
| 20260506213016 | 67 | 231 | 5.0 | 6.0 | 0.00 | 0.40 | 0.40 | 87 | 1009.2 |
| 20260506212512 | 66 | 227 | 5.0 | 7.0 | 0.00 | 0.40 | 0.40 | 87 | 1009.2 |
| 20260506212007 | 66 | 254 | 4.0 | 8.0 | 0.00 | 0.40 | 0.40 | 87 | 1009.1 |
| 20260506211502 | 66 | 259 | 2.0 | 7.0 | 0.00 | 0.40 | 0.40 | 88 | 1009.1 |
| 20260506210955 | 66 | 253 | 7.0 | 10.0 | 0.00 | 0.40 | 0.40 | 87 | 1009.2 |
| 20260506210451 | 67 | 266 | 6.0 | 10.0 | 0.00 | 0.40 | 0.40 | 87 | 1009.1 |
| 20260506205948 | 67 | 248 | 9.0 | 10.0 | 0.00 | 0.40 | 0.40 | 87 | 1009.1 |
| 20260506205444 | 67 | 301 | 4.0 | 8.0 | 0.00 | 0.40 | 0.40 | 87 | 1009.0 |
| 20260506204940 | 66 | 284 | 4.0 | 9.0 | 0.00 | 0.40 | 0.40 | 87 | 1009.1 |
| 20260506204438 | 66 | 234 | 6.0 | 9.0 | 0.00 | 0.40 | 0.40 | 87 | 1008.9 |
| 20260506203936 | 67 | 263 | 6.0 | 9.0 | 0.00 | 0.40 | 0.40 | 86 | 1009.0 |
| 20260506203433 | 67 | 230 | 5.0 | 9.0 | 0.00 | 0.40 | 0.40 | 86 | 1009.1 |
| 20260506202929 | 67 | 235 | 10.0 | 13.0 | 0.00 | 0.40 | 0.40 | 86 | 1009.2 |
| 20260506202427 | 67 | 245 | 6.0 | 8.0 | 0.00 | 0.40 | 0.40 | 87 | 1008.9 |
| 20260506201923 | 67 | 245 | 7.0 | 8.0 | 0.00 | 0.40 | 0.40 | 86 | 1009.2 |
| 20260506201421 | 67 | 252 | 1.0 | 6.0 | 0.00 | 0.40 | 0.40 | 87 | 1009.0 |
| 20260506200917 | 66 | 228 | 5.0 | 7.0 | 0.00 | 0.40 | 0.40 | 88 | 1009.2 |
| 20260506200413 | 66 | 217 | 7.0 | 9.0 | 0.00 | 0.40 | 0.40 | 87 | 1008.9 |
| 20260506195910 | 66 | 252 | 5.0 | 8.0 | 0.00 | 0.40 | 0.40 | 88 | 1009.1 |
| 20260506195407 | 66 | 242 | 3.0 | 8.0 | 0.00 | 0.40 | 0.40 | 88 | 1009.2 |
| 20260506194904 | 65 | 225 | 4.0 | 7.0 | 0.00 | 0.40 | 0.40 | 88 | 1009.3 |
| 20260506194401 | 65 | 248 | 7.0 | 11.0 | 0.00 | 0.40 | 0.40 | 88 | 1009.4 |
| 20260506193858 | 65 | 268 | 3.0 | 10.0 | 0.00 | 0.40 | 0.40 | 88 | 1009.2 |
| 20260506193354 | 65 | 245 | 6.0 | 15.0 | 0.00 | 0.40 | 0.40 | 88 | 1009.3 |
| 20260506192851 | 65 | 249 | 7.0 | 10.0 | 0.00 | 0.40 | 0.40 | 88 | 1009.2 |
| 20260506192348 | 65 | 256 | 4.0 | 7.0 | 0.00 | 0.40 | 0.40 | 89 | 1009.1 |
| 20260506191845 | 65 | 233 | 8.0 | 10.0 | 0.00 | 0.40 | 0.40 | 88 | 1009.2 |
| 20260506191341 | 65 | 242 | 8.0 | 9.0 | 0.00 | 0.40 | 0.40 | 89 | 1009.2 |
| 20260506190838 | 65 | 237 | 3.0 | 6.0 | 0.00 | 0.40 | 0.40 | 90 | 1009.3 |
| 20260506190334 | 64 | 257 | 7.0 | 11.0 | 0.00 | 0.40 | 0.40 | 90 | 1009.6 |
| 20260506185831 | 64 | 249 | 3.0 | 10.0 | 0.00 | 0.40 | 0.40 | 90 | 1009.4 |
| 20260506185328 | 64 | 247 | 3.0 | 7.0 | 0.00 | 0.40 | 0.40 | 91 | 1009.5 |
| 20260506184825 | 63 | 269 | 4.0 | 7.0 | 0.00 | 0.40 | 0.40 | 92 | 1009.7 |
| 20260506184323 | 63 | 231 | 5.0 | 6.0 | 0.00 | 0.40 | 0.40 | 92 | 1009.8 |
| 20260506183820 | 63 | 281 | 6.0 | 8.0 | 0.00 | 0.40 | 0.40 | 92 | 1009.5 |
| 20260506183315 | 63 | 288 | 6.0 | 8.0 | 0.00 | 0.40 | 0.40 | 92 | 1009.8 |
| 20260506182813 | 63 | 252 | 3.0 | 8.0 | 0.00 | 0.40 | 0.40 | 93 | 1009.7 |
| 20260506182310 | 63 | 238 | 4.0 | 6.0 | 0.00 | 0.40 | 0.40 | 93 | 1009.6 |
| 20260506181807 | 63 | 251 | 8.0 | 9.0 | 0.00 | 0.40 | 0.40 | 92 | 1009.7 |
| 20260506181305 | 63 | 236 | 7.0 | 10.0 | 0.00 | 0.40 | 0.40 | 93 | 1009.7 |
| 20260506180802 | 63 | 245 | 10.0 | 11.0 | 0.00 | 0.40 | 0.40 | 93 | 1009.9 |
| 20260506180257 | 63 | 239 | 9.0 | 11.0 | 0.00 | 0.40 | 0.40 | 94 | 1009.7 |
| 20260506175754 | 62 | 228 | 6.0 | 14.0 | 0.00 | 0.40 | 0.40 | 94 | 1009.9 |
| 20260506175251 | 62 | 216 | 7.0 | 8.0 | 0.00 | 0.40 | 0.40 | 94 | 1009.7 |
| 20260506174748 | 62 | 223 | 4.0 | 9.0 | 0.00 | 0.40 | 0.40 | 95 | 1009.8 |
| 20260506174245 | 62 | 251 | 6.0 | 11.0 | 0.00 | 0.40 | 0.40 | 94 | 1009.9 |
| 20260506173743 | 62 | 215 | 10.0 | 13.0 | 0.00 | 0.40 | 0.40 | 94 | 1009.8 |
| 20260506173240 | 62 | 254 | 9.0 | 14.0 | 0.00 | 0.40 | 0.40 | 94 | 1009.7 |
| 20260506172737 | 62 | 221 | 5.0 | 13.0 | 0.00 | 0.40 | 0.40 | 94 | 1009.9 |
| 20260506172233 | 62 | 250 | 4.0 | 8.0 | 0.00 | 0.40 | 0.40 | 95 | 1009.8 |
| 20260506171731 | 62 | 221 | 3.0 | 8.0 | 0.00 | 0.40 | 0.40 | 95 | 1009.9 |
| 20260506171228 | 62 | 280 | 9.0 | 10.0 | 0.00 | 0.40 | 0.40 | 96 | 1009.9 |
| 20260506170726 | 61 | 246 | 6.0 | 13.0 | 0.00 | 0.40 | 0.40 | 97 | 1010.1 |
| 20260506170222 | 61 | 259 | 5.0 | 9.0 | 0.00 | 0.40 | 0.40 | 97 | 1009.9 |
| 20260506165720 | 61 | 226 | 4.0 | 8.0 | 0.00 | 0.40 | 0.40 | 97 | 1009.8 |
| 20260506165217 | 61 | 272 | 6.0 | 9.0 | 0.00 | 0.40 | 0.40 | 98 | 1009.8 |
| 20260506164714 | 61 | 231 | 4.0 | 10.0 | 0.00 | 0.40 | 0.40 | 98 | 1010.0 |
| 20260506164211 | 61 | 239 | 5.0 | 9.0 | 0.00 | 0.40 | 0.40 | 98 | 1009.9 |
| 20260506163708 | 61 | 240 | 7.0 | 10.0 | 0.00 | 0.40 | 0.40 | 98 | 1009.7 |
| 20260506163203 | 61 | 237 | 6.0 | 7.0 | 0.00 | 0.40 | 0.40 | 99 | 1010.0 |
| 20260506162659 | 61 | 247 | 6.0 | 8.0 | 0.00 | 0.40 | 0.40 | 99 | 1009.9 |
| 20260506162157 | 60 | 242 | 5.0 | 11.0 | 0.00 | 0.40 | 0.40 | 99 | 1010.1 |
| 20260506161654 | 61 | 209 | 6.0 | 8.0 | 0.00 | 0.40 | 0.40 | 99 | 1010.0 |
| 20260506161150 | 60 | 217 | 3.0 | 7.0 | 0.00 | 0.40 | 0.40 | 99 | 1010.3 |
| 20260506160648 | 60 | 241 | 1.0 | 5.0 | 0.00 | 0.40 | 0.40 | 99 | 1010.2 |
| 20260506160145 | 60 | 237 | 7.0 | 9.0 | 0.00 | 0.40 | 0.40 | 99 | 1010.0 |
| 20260506155643 | 60 | 249 | 3.0 | 7.0 | 0.00 | 0.40 | 0.40 | 99 | 1010.2 |
| 20260506155140 | 60 | 233 | 5.0 | 11.0 | 0.00 | 0.40 | 0.40 | 99 | 1009.7 |
| 20260506153242 | 60 | 213 | 5.0 | 7.0 | 0.07 | 0.40 | 0.40 | 99 | 1009.9 |
| 20260506152739 | 60 | 238 | 6.0 | 7.0 | 0.12 | 0.40 | 0.40 | 99 | 1009.8 |
| 20260506152237 | 60 | 228 | 2.0 | 8.0 | 0.12 | 0.39 | 0.39 | 99 | 1010.0 |
| 20260506151735 | 60 | 239 | 1.0 | 6.0 | 0.19 | 0.38 | 0.38 | 99 | 1009.9 |
| 20260506151232 | 60 | 244 | 5.0 | 11.0 | 0.24 | 0.37 | 0.37 | 99 | 1010.0 |
| 20260506150728 | 60 | 246 | 2.0 | 5.0 | 0.19 | 0.35 | 0.35 | 99 | 1010.3 |
| 20260506150225 | 60 | 238 | 3.0 | 5.0 | 0.19 | 0.33 | 0.33 | 99 | 1010.3 |
| 20260506145722 | 60 | 245 | 1.0 | 6.0 | 0.12 | 0.31 | 0.31 | 99 | 1010.4 |
| 20260506145219 | 60 | 231 | 6.0 | 8.0 | 0.28 | 0.30 | 0.30 | 99 | 1010.6 |
| 20260506144716 | 60 | 204 | 4.0 | 9.0 | 0.31 | 0.28 | 0.28 | 98 | 1010.9 |
| 20260506144213 | 60 | 244 | 3.0 | 7.0 | 0.12 | 0.24 | 0.24 | 98 | 1010.9 |
| 20260506143711 | 60 | 218 | 5.0 | 10.0 | 0.12 | 0.22 | 0.22 | 97 | 1011.0 |
| 20260506143208 | 61 | 203 | 3.0 | 7.0 | 0.05 | 0.21 | 0.21 | 97 | 1011.1 |
| 20260506142707 | 61 | 248 | 9.0 | 10.0 | 0.00 | 0.20 | 0.20 | 97 | 1011.0 |
| 20260506142204 | 61 | 253 | 4.0 | 5.0 | 0.07 | 0.20 | 0.20 | 97 | 1010.7 |
| 20260506141702 | 61 | 227 | 3.0 | 7.0 | 0.05 | 0.19 | 0.19 | 97 | 1010.6 |
| 20260506141200 | 61 | 196 | 3.0 | 6.0 | 0.05 | 0.19 | 0.19 | 97 | 1010.4 |
| 20260506140657 | 61 | 240 | 5.0 | 6.0 | 0.07 | 0.18 | 0.18 | 97 | 1010.5 |
| 20260506140154 | 61 | 256 | 2.0 | 6.0 | 0.12 | 0.18 | 0.18 | 97 | 1010.4 |
| 20260506135651 | 61 | 244 | 2.0 | 2.0 | 0.24 | 0.17 | 0.17 | 97 | 1010.2 |
| 20260506135147 | 60 | 243 | 2.0 | 2.0 | 0.31 | 0.16 | 0.16 | 96 | 1010.1 |
| 20260506134644 | 61 | 232 | 1.0 | 2.0 | 0.19 | 0.13 | 0.13 | 96 | 1010.5 |
| 20260506134140 | 61 | 239 | 1.0 | 2.0 | 0.05 | 0.10 | 0.10 | 95 | 1010.4 |
| 20260506133637 | 61 | 237 | 2.0 | 2.0 | 0.07 | 0.09 | 0.09 | 95 | 1010.7 |
| 20260506133134 | 61 | 227 | 5.0 | 7.0 | 0.12 | 0.09 | 0.09 | 94 | 1010.6 |
| 20260506132632 | 61 | 249 | 2.0 | 7.0 | 0.05 | 0.08 | 0.08 | 94 | 1010.5 |
| 20260506132128 | 61 | 238 | 3.0 | 3.0 | 0.07 | 0.07 | 0.07 | 93 | 1010.4 |
| 20260506131626 | 61 | 254 | 1.0 | 1.0 | 0.00 | 0.06 | 0.06 | 93 | 1010.4 |
| 20260506131121 | 61 | 222 | 1.0 | 5.0 | 0.00 | 0.06 | 0.06 | 93 | 1010.4 |
| 20260506130619 | 61 | 230 | 4.0 | 6.0 | 0.00 | 0.06 | 0.06 | 92 | 1010.6 |
| 20260506130116 | 62 | 234 | 3.0 | 5.0 | 0.05 | 0.06 | 0.06 | 91 | 1010.5 |
| 20260506125614 | 61 | 229 | 2.0 | 5.0 | 0.05 | 0.06 | 0.06 | 92 | 1010.6 |
| 20260506125112 | 61 | 220 | 3.0 | 3.0 | 0.07 | 0.05 | 0.05 | 91 | 1010.7 |
| 20260506124609 | 61 | 223 | 2.0 | 5.0 | 0.07 | 0.05 | 0.05 | 90 | 1010.7 |
| 20260506124107 | 61 | 221 | 2.0 | 3.0 | 0.00 | 0.04 | 0.04 | 90 | 1010.7 |
| 20260506123604 | 62 | 246 | 0.0 | 2.0 | 0.05 | 0.04 | 0.04 | 89 | 1010.6 |
| 20260506123103 | 62 | 246 | 0.0 | 3.0 | 0.05 | 0.04 | 0.04 | 88 | 1010.9 |
| 20260506122559 | 62 | 254 | 4.0 | 5.0 | 0.07 | 0.03 | 0.03 | 87 | 1010.9 |
| 20260506122057 | 62 | 230 | 2.0 | 3.0 | 0.00 | 0.02 | 0.02 | 87 | 1011.1 |
| 20260506121555 | 62 | 250 | 3.0 | 3.0 | 0.00 | 0.02 | 0.02 | 86 | 1011.0 |
| 20260506121050 | 63 | 231 | 2.0 | 2.0 | 0.05 | 0.02 | 0.02 | 85 | 1011.3 |
| 20260506120549 | 63 | 266 | 2.0 | 3.0 | 0.05 | 0.02 | 0.02 | 84 | 1011.3 |
| 20260506120045 | 63 | 261 | 1.0 | 1.0 | 0.00 | 0.01 | 0.01 | 83 | 1011.1 |
| 20260506115543 | 64 | 254 | 2.0 | 3.0 | 0.00 | 0.01 | 0.01 | 81 | 1010.9 |
| 20260506115042 | 63 | 245 | 3.0 | 5.0 | 0.00 | 0.01 | 0.01 | 81 | 1010.9 |
| 20260506114539 | 63 | 255 | 0.0 | 2.0 | 0.07 | 0.01 | 0.01 | 81 | 1010.5 |
| 20260506114037 | 64 | 248 | 0.0 | 2.0 | 0.07 | 0.01 | 0.01 | 80 | 1010.5 |
| 20260506113535 | 64 | 220 | 1.0 | 2.0 | 0.00 | 0.00 | 0.00 | 79 | 1010.4 |
| 20260506113032 | 65 | 257 | 3.0 | 5.0 | 0.00 | 0.00 | 0.00 | 76 | 1010.4 |
| 20260506112528 | 65 | 235 | 2.0 | 6.0 | 0.00 | 0.00 | 0.00 | 76 | 1010.3 |
| 20260506112026 | 66 | 250 | 4.0 | 8.0 | 0.00 | 0.00 | 0.00 | 73 | 1010.6 |
| 20260506111524 | 66 | 247 | 5.0 | 6.0 | 0.00 | 0.00 | 0.00 | 72 | 1010.4 |
| 20260506111021 | 66 | 246 | 6.0 | 11.0 | 0.00 | 0.00 | 0.00 | 71 | 1010.4 |
| 20260506110518 | 66 | 247 | 2.0 | 2.0 | 0.00 | 0.00 | 0.00 | 70 | 1010.1 |
| 20260506110015 | 66 | 220 | 1.0 | 5.0 | 0.00 | 0.00 | 0.00 | 70 | 1010.2 |
| 20260506105511 | 66 | 265 | 3.0 | 3.0 | 0.00 | 0.00 | 0.00 | 70 | 1010.2 |
| 20260506105009 | 66 | 257 | 4.0 | 10.0 | 0.00 | 0.00 | 0.00 | 68 | 1010.1 |
| 20260506104507 | 66 | 253 | 0.0 | 3.0 | 0.00 | 0.00 | 0.00 | 70 | 1010.0 |
| 20260506104005 | 66 | 260 | 6.0 | 9.0 | 0.00 | 0.00 | 0.00 | 68 | 1009.9 |
| 20260506103501 | 67 | 285 | 5.0 | 7.0 | 0.00 | 0.00 | 0.00 | 67 | 1010.0 |
| 20260506102958 | 67 | 218 | 7.0 | 11.0 | 0.00 | 0.00 | 0.00 | 66 | 1009.8 |
| 20260506102456 | 67 | 244 | 5.0 | 7.0 | 0.00 | 0.00 | 0.00 | 66 | 1009.9 |
| 20260506101953 | 67 | 261 | 6.0 | 8.0 | 0.00 | 0.00 | 0.00 | 67 | 1009.6 |
| 20260506101450 | 67 | 235 | 3.0 | 8.0 | 0.00 | 0.00 | 0.00 | 66 | 1009.7 |
| 20260506100947 | 67 | 245 | 2.0 | 7.0 | 0.00 | 0.00 | 0.00 | 67 | 1009.6 |
| 20260506100446 | 67 | 220 | 2.0 | 6.0 | 0.00 | 0.00 | 0.00 | 68 | 1009.6 |
| 20260506095943 | 67 | 248 | 3.0 | 9.0 | 0.00 | 0.00 | 0.00 | 66 | 1009.5 |
| 20260506095442 | 67 | 219 | 3.0 | 5.0 | 0.00 | 0.00 | 0.00 | 66 | 1009.4 |
| 20260506094937 | 67 | 231 | 4.0 | 6.0 | 0.00 | 0.00 | 0.00 | 66 | 1009.5 |
| 20260506094436 | 67 | 238 | 4.0 | 7.0 | 0.00 | 0.00 | 0.00 | 65 | 1009.7 |
| 20260506093933 | 68 | 247 | 0.0 | 6.0 | 0.00 | 0.00 | 0.00 | 65 | 1009.5 |
| 20260506093431 | 68 | 236 | 2.0 | 9.0 | 0.00 | 0.00 | 0.00 | 63 | 1009.7 |
| 20260506092928 | 68 | 246 | 1.0 | 3.0 | 0.00 | 0.00 | 0.00 | 64 | 1009.7 |
| 20260506092426 | 68 | 224 | 5.0 | 8.0 | 0.00 | 0.00 | 0.00 | 62 | 1009.8 |
| 20260506091922 | 68 | 232 | 4.0 | 6.0 | 0.00 | 0.00 | 0.00 | 62 | 1009.8 |
| 20260506091421 | 68 | 216 | 4.0 | 9.0 | 0.00 | 0.00 | 0.00 | 62 | 1009.6 |
| 20260506090918 | 68 | 254 | 3.0 | 5.0 | 0.00 | 0.00 | 0.00 | 62 | 1009.8 |
| 20260506090415 | 68 | 230 | 4.0 | 7.0 | 0.00 | 0.00 | 0.00 | 62 | 1009.7 |
| 20260506085912 | 69 | 254 | 6.0 | 9.0 | 0.00 | 0.00 | 0.00 | 61 | 1009.9 |
| 20260506085409 | 68 | 258 | 4.0 | 8.0 | 0.00 | 0.00 | 0.00 | 61 | 1009.7 |
| 20260506084905 | 69 | 252 | 2.0 | 3.0 | 0.00 | 0.00 | 0.00 | 61 | 1009.9 |
| 20260506084402 | 69 | 214 | 3.0 | 5.0 | 0.00 | 0.00 | 0.00 | 61 | 1009.7 |
| 20260506083858 | 69 | 243 | 8.0 | 11.0 | 0.00 | 0.00 | 0.00 | 60 | 1009.6 |
| 20260506083356 | 69 | 251 | 2.0 | 11.0 | 0.00 | 0.00 | 0.00 | 60 | 1009.8 |
| 20260506082853 | 69 | 251 | 4.0 | 8.0 | 0.00 | 0.00 | 0.00 | 60 | 1009.8 |
| 20260506082349 | 69 | 232 | 3.0 | 8.0 | 0.00 | 0.00 | 0.00 | 60 | 1009.7 |
| 20260506081845 | 69 | 243 | 5.0 | 7.0 | 0.00 | 0.00 | 0.00 | 60 | 1009.9 |
| 20260506081343 | 69 | 223 | 4.0 | 7.0 | 0.00 | 0.00 | 0.00 | 59 | 1009.9 |
| 20260506080835 | 69 | 236 | 7.0 | 13.0 | 0.00 | 0.00 | 0.00 | 59 | 1009.8 |
| 20260506080331 | 69 | 241 | 9.0 | 11.0 | 0.00 | 0.00 | 0.00 | 59 | 1009.7 |
| 20260506073316 | 70 | 233 | 4.0 | 7.0 | 0.00 | 0.00 | 0.00 | 57 | 1009.8 |
| 20260506072812 | 70 | 243 | 10.0 | 15.0 | 0.00 | 0.00 | 0.00 | 56 | 1010.0 |
| 20260506072310 | 70 | 236 | 9.0 | 11.0 | 0.00 | 0.00 | 0.00 | 56 | 1009.9 |
| 20260506071808 | 70 | 207 | 2.0 | 13.0 | 0.00 | 0.00 | 0.00 | 57 | 1010.0 |
| 20260506071306 | 70 | 238 | 7.0 | 11.0 | 0.00 | 0.00 | 0.00 | 56 | 1010.0 |
| 20260506070802 | 70 | 252 | 6.0 | 8.0 | 0.00 | 0.00 | 0.00 | 56 | 1010.0 |
| 20260506070259 | 70 | 245 | 7.0 | 10.0 | 0.00 | 0.00 | 0.00 | 56 | 1009.9 |
| 20260506062235 | 70 | 245 | 6.0 | 9.0 | 0.00 | 0.00 | 0.00 | 54 | 1010.5 |
| 20260506061726 | 70 | 237 | 4.0 | 10.0 | 0.00 | 0.00 | 0.00 | 53 | 1010.6 |
| 20260506061224 | 70 | 247 | 3.0 | 8.0 | 0.00 | 0.00 | 0.00 | 53 | 1010.5 |
| 20260506060722 | 70 | 216 | 6.0 | 8.0 | 0.00 | 0.00 | 0.00 | 54 | 1010.5 |
| 20260506060219 | 70 | 217 | 5.0 | 8.0 | 0.00 | 0.00 | 0.00 | 53 | 1010.8 |
| 20260506051151 | 70 | 237 | 4.0 | 5.0 | 0.00 | 0.00 | 0.00 | 48 | 1011.1 |
| 20260506050649 | 70 | 226 | 3.0 | 5.0 | 0.00 | 0.00 | 0.00 | 49 | 1011.4 |
| 20260506050146 | 70 | 225 | 4.0 | 9.0 | 0.00 | 0.00 | 0.00 | 47 | 1011.2 |
| 20260506044637 | 70 | 230 | 5.0 | 8.0 | 0.00 | 0.00 | 0.00 | 47 | 1011.3 |
| 20260506044134 | 70 | 241 | 2.0 | 8.0 | 0.00 | 0.00 | 0.00 | 47 | 1011.2 |
| 20260506043631 | 70 | 225 | 4.0 | 8.0 | 0.00 | 0.00 | 0.00 | 46 | 1011.2 |
| 20260506043129 | 70 | 230 | 4.0 | 6.0 | 0.00 | 0.00 | 0.00 | 47 | 1011.1 |
| 20260506042628 | 70 | 230 | 3.0 | 6.0 | 0.00 | 0.00 | 0.00 | 46 | 1011.0 |
| 20260506042125 | 70 | 240 | 3.0 | 5.0 | 0.00 | 0.00 | 0.00 | 47 | 1010.9 |
| 20260506041624 | 71 | 229 | 3.0 | 10.0 | 0.00 | 0.00 | 0.00 | 45 | 1011.1 |
| 20260506041120 | 70 | 201 | 5.0 | 8.0 | 0.00 | 0.00 | 0.00 | 45 | 1011.0 |
| 20260506040618 | 70 | 220 | 1.0 | 8.0 | 0.00 | 0.00 | 0.00 | 45 | 1011.2 |
| 20260506040115 | 70 | 201 | 2.0 | 5.0 | 0.00 | 0.00 | 0.00 | 45 | 1011.2 |
| 20260506035611 | 70 | 249 | 2.0 | 9.0 | 0.00 | 0.00 | 0.00 | 45 | 1011.1 |
| 20260506035108 | 70 | 217 | 5.0 | 7.0 | 0.00 | 0.00 | 0.00 | 44 | 1011.2 |
| 20260506034605 | 70 | 265 | 2.0 | 7.0 | 0.00 | 0.00 | 0.00 | 45 | 1011.2 |
| 20260506034102 | 71 | 220 | 5.0 | 7.0 | 0.00 | 0.00 | 0.00 | 44 | 1011.2 |
| 20260506033559 | 71 | 253 | 1.0 | 5.0 | 0.00 | 0.00 | 0.00 | 45 | 1011.3 |
| 20260506033056 | 71 | 227 | 5.0 | 9.0 | 0.00 | 0.00 | 0.00 | 43 | 1011.0 |
| 20260506032554 | 71 | 242 | 7.0 | 9.0 | 0.00 | 0.00 | 0.00 | 43 | 1011.0 |
| 20260506032050 | 70 | 242 | 4.0 | 9.0 | 0.00 | 0.00 | 0.00 | 44 | 1010.9 |
| 20260506031548 | 71 | 232 | 2.0 | 8.0 | 0.00 | 0.00 | 0.00 | 44 | 1011.2 |
| 20260506031044 | 71 | 241 | 5.0 | 9.0 | 0.00 | 0.00 | 0.00 | 42 | 1011.1 |